KEST

Estherville Municipal Airport

Estherville, Iowa, USA
METAR KEST 181952Z AUTO 24016G25KT 10SM CLR 07/M01 A2974 RMK AO2 SLP081 T00671011
Observed Flight Rules
Dec-18 @ 19:52 UTC (31 minutes ago) Visual Flight Rules
Wind Visibility Clouds
240° at 16 knots
 Gusting to 25 knots
10 miles
  • Clear skies
Temperatures Readings
Current 7°C / 45°F
Dewpoint -1°C / 30°F
Humidity 57%
Altimeter 29.74" Hg
Pressure 1008.1 hPa
Elevation 401
METAR KEST 181952Z AUTO 24016G25KT 10SM CLR 07/M01 A2974 RMK AO2 SLP081 T00671011
Observed Flight Rules
Dec-18 @ 19:52 UTC
(31 minutes ago)
VFR
Wind Visibility
240° at 16 knots
 Gusting to 25 knots
10 miles
Clouds
  • Clear skies
Temperature Dewpoint
7°C / 45°F -1°C / 30°F
Humidity Altimeter Pressure
57% 29.74" Hg 1008.1 hPa